Weather observations for the past three days for
Charleston Executive Airport
Imperial (Metric)
Date Time (edt) Wind (mph) Vis. (mi.) Weather Sky Cond. Temperature (ºF) Relative Humidity Wind Chill (°F) Heat Index (°F) Pressure Precipitation (in)
Air Dwpt 6 hour altimeter (in) sea level (mb) 1 hr 3 hr 6 hr
Max. Min.
05 19:35 SE 8 10.00 Fair CLR 69.8 57.2 64% 30.02 0.0
05 19:15 SE 8 G 15 10.00 Fair CLR 71.6 57.2 61% 30.02 0.0
05 18:55 S 8 10.00 Fair CLR 71.6 55.4 57% 30.03 0.0
05 18:35 S 9 10.00 Fair CLR 71.6 57.2 61% 30.03 0.0
05 18:15 S 10 10.00 Partly Cloudy SCT043 73.4 55.4 53% 30.03 0.0
05 17:55 S 7 10.00 Mostly Cloudy BKN042 73.4 55.4 53% 30.03 0.0
05 17:35 S 8 G 15 10.00 Mostly Cloudy BKN041 BKN047 73.4 57.2 57% 30.04 0.0
05 17:15 S 10 G 16 10.00 Mostly Cloudy BKN041 BKN048 73.4 57.2 57% 30.04 0.0
05 16:30 S 8 G 15 10.00 A Few Clouds FEW042 73.4 57.2 57% 30.04 0.0
05 16:15 S 8 G 16 10.00 Partly Cloudy SCT042 73.4 57.2 57% 30.04 0.0
05 15:55 SE 8 10.00 Mostly Cloudy BKN041 73.4 57.2 57% 30.05 0.0
05 15:35 Vrbl 7 G 14 10.00 Mostly Cloudy BKN042 75.2 57.2 54% 78 30.06 0.0
05 15:15 SE 8 G 14 10.00 Partly Cloudy SCT041 75.2 57.2 54% 78 30.07 0.0
05 14:55 S 8 10.00 A Few Clouds FEW043 75.2 55.4 50% 78 30.08 0.0
05 14:35 SE 9 10.00 Fair CLR 75.2 55.4 50% 78 30.07 0.0
05 14:15 S 13 10.00 Fair CLR 75.2 55.4 50% 78 30.07 0.0
05 13:55 SE 12 10.00 Fair CLR 75.2 55.4 50% 78 30.07 0.0
05 13:35 SE 9 10.00 Fair CLR 75.2 55.4 50% 78 30.06 0.0
05 13:15 S 8 G 16 10.00 A Few Clouds FEW040 77 57.2 51% 79 30.08 0.0
05 12:55 S 10 G 20 10.00 Partly Cloudy SCT039 75.2 57.2 54% 78 30.08 0.0
05 12:35 S 9 G 15 10.00 Partly Cloudy SCT039 75.2 57.2 54% 78 30.09 0.0
05 12:15 S 10 10.00 Mostly Cloudy SCT038 BKN043 73.4 57.2 57% 30.09 0.0
05 11:35 S 7 G 15 10.00 A Few Clouds FEW042 73.4 55.4 53% 30.09 0.0
05 11:15 SE 6 G 14 10.00 Fair CLR 73.4 57.2 57% 30.09 0.0
05 10:55 S 10 10.00 Fair CLR 73.4 57.2 57% 30.09 0.0
05 10:35 S 10 10.00 Fair CLR 71.6 57.2 61% 30.08 0.0
05 10:15 S 6 10.00 Fair CLR 71.6 57.2 61% 30.08 0.0
05 09:55 SW 8 10.00 A Few Clouds FEW036 73.4 57.2 57% 30.08 0.0
05 09:35 S 7 G 14 10.00 A Few Clouds FEW036 73.4 57.2 57% 30.08 0.0
05 09:15 S 9 10.00 Fair CLR 71.6 57.2 61% 30.07 0.0
05 08:55 S 9 10.00 Fair CLR 71.6 57.2 61% 30.07 0.0
05 08:35 S 5 10.00 Fair CLR 71.6 57.2 61% 30.07 0.0
05 08:15 Calm 10.00 Fair CLR 69.8 59 69% 30.07 0.0
05 07:55 Calm 10.00 Fair CLR 66.2 59 78% 30.07 0.0
05 07:35 Calm 10.00 Fair CLR 60.8 57.2 88% 30.06 0.0
05 07:15 Calm 10.00 Fair CLR 59 55.4 88% 30.05 0.0
05 06:55 Calm 10.00 Fair CLR 55.4 55.4 100% 30.05 0.0
05 06:35 Calm 10.00 Fair CLR 55.4 53.6 94% 30.04 0.0
05 06:15 Calm 10.00 Fair CLR 57.2 55.4 94% 30.04 0.0
05 05:55 Calm 10.00 Fair CLR 57.2 55.4 94% 30.03 0.0
05 05:35 Calm 10.00 Fair CLR 57.2 55.4 94% 30.04 0.0
05 05:15 Calm 10.00 Fair CLR 57.2 55.4 94% 30.03 0.0
05 04:55 Calm 10.00 Fair CLR 57.2 55.4 94% 30.02 0.0
05 04:35 Calm 10.00 Fair CLR 59 55.4 88% 30.02 0.0
05 04:15 Calm 10.00 Fair CLR 62.6 55.4 77% 30.01 0.0
05 03:55 Calm 10.00 Fair CLR 64.4 55.4 73% 30.02 0.0
05 03:35 S 5 10.00 Fair CLR 62.6 55.4 77% 30.01 0.0
05 03:15 S 7 10.00 Fair CLR 62.6 55.4 77% 30.01 0.0
05 02:55 S 7 10.00 Fair CLR 64.4 55.4 73% 30.02 0.0
05 02:35 S 7 10.00 Fair CLR 64.4 57.2 78% 30.02 0.0
05 02:15 S 6 10.00 Fair CLR 64.4 57.2 78% 30.03 0.0
05 01:55 S 6 10.00 Fair CLR 64.4 57.2 78% 30.04 0.0
05 01:35 S 8 10.00 Fair CLR 64.4 57.2 78% 30.04 0.0
05 01:15 S 8 10.00 Fair CLR 64.4 57.2 78% 30.05 0.0
05 00:55 S 8 10.00 Fair CLR 66.2 57.2 73% 30.05 0.0
05 00:30 S 7 10.00 Fair CLR 64.4 57.2 78% 30.06 0.0
05 00:15 S 7 10.00 Fair CLR 64.4 55.4 73% 30.06 0.0
04 23:55 S 3 10.00 Fair CLR 64.4 55.4 73% 30.06 0.0
04 23:35 SW 5 10.00 Fair CLR 64.4 55.4 73% 30.06 0.0
04 23:15 S 5 10.00 Fair CLR 64.4 55.4 73% 30.06 0.0
04 22:55 S 6 10.00 Fair CLR 64.4 55.4 73% 30.06 0.0
04 22:35 S 6 10.00 Fair CLR 64.4 55.4 73% 30.05 0.0
04 22:15 S 5 10.00 Fair CLR 64.4 53.6 68% 30.05 0.0
04 21:55 S 6 10.00 Fair CLR 64.4 53.6 68% 30.05 0.0
04 21:35 SW 5 10.00 Fair CLR 64.4 53.6 68% 30.05 0.0
04 21:15 S 7 10.00 Fair CLR 66.2 51.8 60% 30.05 0.0
04 20:55 S 7 10.00 Fair CLR 64.4 51.8 64% 30.05 0.0
04 20:35 S 6 10.00 Fair CLR 64.4 51.8 64% 30.04 0.0
04 20:15 S 6 10.00 Fair CLR 64.4 51.8 64% 30.04 0.0
04 19:55 S 7 10.00 Fair CLR 66.2 51.8 60% 30.04 0.0
04 19:35 S 7 10.00 Fair CLR 68 50 53% 30.03 0.0
04 19:15 S 7 G 14 10.00 Fair CLR 69.8 48.2 46% 30.03 0.0
04 18:55 S 10 10.00 Fair CLR 71.6 48.2 44% 30.03 0.0
04 18:35 S 12 10.00 Fair CLR 71.6 46.4 41% 30.04 0.0
04 18:15 S 10 G 17 10.00 Fair CLR 71.6 46.4 41% 30.04 0.0
04 17:55 S 12 G 18 10.00 Fair CLR 73.4 48.2 41% 30.04 0.0
04 17:35 S 14 10.00 Fair CLR 73.4 48.2 41% 30.04 0.0
04 17:15 S 14 G 20 10.00 Fair CLR 73.4 50 44% 30.04 0.0
04 16:55 S 12 G 17 10.00 Fair CLR 73.4 53.6 50% 30.04 0.0
04 16:35 S 10 G 20 10.00 Fair CLR 73.4 51.8 47% 30.04 0.0
04 16:15 S 10 G 20 10.00 Fair CLR 73.4 53.6 50% 30.05 0.0
04 15:55 S 13 G 18 10.00 Fair CLR 73.4 51.8 47% 30.05 0.0
04 15:35 S 14 10.00 Fair CLR 75.2 51.8 44% 78 30.06 0.0
04 15:15 S 15 10.00 Fair CLR 75.2 50 41% 78 30.06 0.0
04 14:55 S 14 10.00 Fair CLR 75.2 50 41% 78 30.06 0.0
04 14:35 S 15 10.00 Fair CLR 75.2 51.8 44% 78 30.07 0.0
04 14:15 S 12 G 18 9.00 Fair CLR 75.2 51.8 44% 78 30.07 0.0
04 13:55 S 15 10.00 Fair CLR 75.2 50 41% 78 30.07 0.0
04 13:35 S 15 10.00 Fair CLR 75.2 48.2 39% 77 30.07 0.0
04 13:15 S 13 10.00 Fair CLR 75.2 48.2 39% 77 30.07 0.0
04 12:55 S 10 10.00 Fair CLR 75.2 48.2 39% 77 30.08 0.0
04 12:35 S 13 10.00 A Few Clouds FEW055 75.2 50 41% 78 30.08 0.0
04 12:15 S 10 10.00 Fair CLR 75.2 50 41% 78 30.08 0.0
04 11:50 Vrbl 7 10.00 Fair CLR 73.4 50 44% 30.08 0.0
04 11:35 S 6 10.00 Fair CLR 73.4 50 44% 30.08 0.0
04 11:15 Calm 10.00 Fair CLR 73.4 48.2 41% 30.09 0.0
04 10:55 SW 7 10.00 Fair CLR 73.4 51.8 47% 30.09 0.0
04 10:35 Calm 10.00 Fair CLR 73.4 51.8 47% 30.09 0.0
04 10:15 NW 7 10.00 Fair CLR 71.6 51.8 50% 30.09 0.0
04 09:55 W 7 10.00 Fair CLR 71.6 51.8 50% 30.09 0.0
04 09:35 NW 7 10.00 Fair CLR 69.8 53.6 57% 30.1 0.0
04 09:15 W 5 10.00 Fair CLR 69.8 55.4 60% 30.1 0.0
04 08:55 W 5 10.00 Fair CLR 68 55.4 64% 30.1 0.0
04 08:35 Calm 10.00 Fair CLR 68 55.4 64% 30.1 0.0
04 07:55 Calm 10.00 Fair CLR 62.6 55.4 77% 30.08 0.0
04 07:35 Calm 10.00 Fair CLR 57.2 51.8 82% 30.08 0.0
04 07:15 Calm 10.00 Fair CLR 53.6 50 88% 30.08 0.0
04 06:55 Calm 10.00 Fair CLR 50 50 100% 30.07 0.0
04 06:35 Calm 10.00 Fair CLR 50 50 100% 30.07 0.0
04 06:15 Calm 10.00 Fair CLR 50 50 100% 30.07 0.0
04 05:55 Calm 10.00 Fair CLR 50 50 100% 30.07 0.0
04 05:35 Calm 10.00 Fair CLR 50 50 100% 30.06 0.0
04 05:15 Calm 10.00 Fair CLR 50 50 100% 30.07 0.0
04 04:55 Calm 10.00 Fair CLR 51.8 50 94% 30.07 0.0
04 04:35 Calm 10.00 Fair CLR 51.8 51.8 100% 30.07 0.0
04 04:15 Calm 10.00 Fair CLR 51.8 51.8 100% 30.08 0.0
04 03:55 Calm 10.00 Fair CLR 51.8 50 94% 30.09 0.0
04 03:35 W 3 10.00 Fair CLR 51.8 50 94% 30.09 0.0
04 03:15 Calm 10.00 Fair CLR 51.8 50 94% 30.08 0.0
04 02:55 Calm 10.00 Fair CLR 53.6 51.8 94% 30.08 0.0
04 02:35 Calm 10.00 Fair CLR 51.8 50 94% 30.09 0.0
04 02:15 Calm 10.00 Fair CLR 51.8 50 94% 30.09 0.0
04 01:55 Calm 10.00 Fair CLR 53.6 50 88% 30.09 0.0
04 01:35 Calm 10.00 Fair CLR 53.6 50 88% 30.1 0.0
04 01:15 Calm 10.00 Fair CLR 53.6 50 88% 30.1 0.0
04 00:55 Calm 10.00 Fair CLR 53.6 50 88% 30.09 0.0
04 00:35 SW 5 10.00 Fair CLR 55.4 50 82% 30.09 0.0
04 00:15 Calm 10.00 Fair CLR 55.4 50 82% 30.1 0.0
03 23:55 Calm 10.00 Fair CLR 57.2 50 77% 30.1 0.0
03 23:35 Calm 10.00 Fair CLR 57.2 50 77% 30.1 0.0
03 23:15 Calm 10.00 Fair CLR 57.2 50 77% 30.1 0.0
03 22:55 Calm 10.00 Fair CLR 55.4 50 82% 30.1 0.0
03 22:35 Calm 10.00 Fair CLR 57.2 50 77% 30.1 0.0
03 22:15 S 3 10.00 Fair CLR 60.8 48.2 63% 30.1 0.0
03 21:55 S 6 10.00 Fair CLR 62.6 50 64% 30.09 0.0
03 21:35 S 6 10.00 Fair CLR 62.6 50 64% 30.08 0.0
03 21:15 S 8 10.00 Fair CLR 62.6 48.2 60% 30.08 0.0
03 20:55 S 7 10.00 Fair CLR 62.6 48.2 60% 30.08 0.0
03 20:35 S 6 10.00 Fair CLR 62.6 48.2 60% 30.07 0.0
03 20:15 SW 5 10.00 Fair CLR 62.6 48.2 60% 30.07 0.0
03 19:55 S 8 10.00 Fair CLR 64.4 46.4 52% 30.06 0.0
03 19:35 S 7 10.00 Fair CLR 64.4 48.2 56% 30.06 0.0
03 19:15 S 7 10.00 Fair CLR 64.4 48.2 56% 30.06 0.0
03 18:55 S 7 10.00 Fair CLR 66.2 48.2 52% 30.06 0.0
03 18:35 S 10 10.00 Fair CLR 66.2 46.4 49% 30.06 0.0
03 18:15 S 8 10.00 Fair CLR 68 46.4 46% 30.06 0.0
03 17:55 S 9 10.00 Fair CLR 68 46.4 46% 30.05 0.0
03 17:35 S 9 10.00 Fair CLR 68 46.4 46% 30.05 0.0
03 17:15 S 9 10.00 Fair CLR 66.2 48.2 52% 30.06 0.0
03 16:55 S 9 10.00 Fair CLR 68 48.2 49% 30.06 0.0
03 16:35 S 9 G 15 10.00 Fair CLR 68 48.2 49% 30.07 0.0
03 16:15 S 9 10.00 Fair CLR 68 46.4 46% 30.07 0.0
03 15:55 Vrbl 6 G 14 10.00 A Few Clouds FEW047 FEW055 FEW065 66.2 48.2 52% 30.08 0.0
03 15:35 S 9 10.00 A Few Clouds FEW049 FEW055 FEW065 66.2 46.4 49% 30.09 0.0
03 15:15 SE 7 10.00 Mostly Cloudy FEW049 BKN060 66.2 48.2 52% 30.1 0.0
03 14:55 S 8 10.00 Partly Cloudy SCT060 66.2 46.4 49% 30.11 0.0
03 14:35 S 6 G 13 10.00 Mostly Cloudy BKN060 64.4 46.4 52% 30.11 0.0
03 14:15 SE 7 10.00 Mostly Cloudy SCT060 BKN070 64.4 46.4 52% 30.12 0.0
03 13:55 SE 8 10.00 Partly Cloudy SCT060 66.2 48.2 52% 30.12 0.0
03 13:35 S 7 G 13 10.00 Mostly Cloudy SCT055 BKN065 64.4 48.2 56% 30.12 0.0
03 13:15 Vrbl 5 10.00 Partly Cloudy SCT055 SCT065 66.2 48.2 52% 30.12 0.0
03 12:55 NE 5 10.00 Fair CLR 68 44.6 43% 30.12 0.0
03 12:35 NE 6 G 12 10.00 Fair CLR 66.2 42.8 43% 30.13 0.0
03 12:15 Vrbl 5 10.00 Fair CLR 66.2 42.8 43% 30.13 0.0
03 11:55 NW 8 10.00 Fair CLR 66.2 42.8 43% 30.13 0.0
03 11:35 N 7 10.00 Fair CLR 66.2 42.8 43% 30.14 0.0
03 11:15 N 8 10.00 Fair CLR 64.4 44.6 49% 30.14 0.0
03 10:50 N 9 10.00 Fair CLR 64.4 48.2 56% 30.14 0.0
03 10:35 N 8 10.00 Fair CLR 64.4 48.2 56% 30.13 0.0
03 10:15 N 10 10.00 Fair CLR 62.6 48.2 60% 30.13 0.0
03 09:55 N 6 10.00 Fair CLR 62.6 51.8 68% 30.12 0.0
03 09:35 N 7 10.00 Fair CLR 60.8 53.6 77% 30.12 0.0
03 09:15 N 8 10.00 Fair CLR 59 53.6 82% 30.12 0.0
03 08:55 N 6 10.00 Fair CLR 59 53.6 82% 30.12 0.0
03 08:35 N 7 10.00 Fair CLR 57.2 53.6 88% 30.12 0.0
03 08:15 N 6 10.00 Fair CLR 55.4 53.6 94% 30.11 0.0
03 07:55 N 5 10.00 Fair CLR 53.6 53.6 100% 30.11 0.0
03 07:35 N 6 9.00 Fair CLR 51.8 51.8 100% 30.1 0.0
03 07:15 N 5 8.00 Fair CLR 50 50 100% 49 30.09 0.0
03 06:35 N 5 7.00 Fair CLR 46.4 46.4 100% 45 30.08 0.0
03 06:15 Calm 4.00 Fog/Mist CLR 48.2 48.2 100% 30.07 0.0
03 05:55 Calm 5.00 Fog/Mist CLR 48.2 48.2 100% 30.06 0.0
03 05:35 Calm 2.50 Fog/Mist FEW022 FEW027 48.2 48.2 100% 30.05 0.0
03 05:15 Calm 0.50 Fog/Mist SCT022 BKN027 48.2 48.2 100% 30.05 0.0
03 04:55 Calm 0.25 Fog SCT021 48.2 48.2 100% 30.04 0.0
03 04:35 Calm 1.25 Fog/Mist CLR 50 50 100% 30.04 0.0
03 04:15 Calm 3.00 Fog/Mist CLR 50 50 100% 30.03 0.0
03 03:55 Calm 3.00 Fog/Mist CLR 50 50 100% 30.03 0.0
03 03:35 Calm 6.00 Fog/Mist CLR 50 50 100% 30.03 0.0
03 03:15 Calm 7.00 Fair CLR 51.8 51.8 100% 30.02 0.0
03 02:55 NW 3 9.00 Fair CLR 51.8 51.8 100% 30.02 0.0
03 02:35 N 6 10.00 Fair CLR 51.8 51.8 100% 30.01 0.0
03 02:15 N 7 10.00 Fair CLR 51.8 51.8 100% 30.01 0.0
03 01:55 NW 6 10.00 Fair CLR 51.8 51.8 100% 30.02 0.0
03 01:35 NW 5 10.00 A Few Clouds FEW075 53.6 53.6 100% 30.01 0.0
03 01:15 N 6 10.00 Partly Cloudy SCT075 53.6 53.6 100% 30.01 0.0
03 00:55 NW 7 10.00 Fair CLR 53.6 53.6 100% 30.01 0.0
03 00:35 N 6 10.00 Partly Cloudy SCT012 SCT080 53.6 53.6 100% 30 0.0
03 00:15 NW 7 9.00 Mostly Cloudy BKN013 53.6 53.6 100% 29.99 0.0
02 23:55 NW 3 9.00 Mostly Cloudy SCT013 BKN025 55.4 55.4 100% 29.98 0.0
02 23:35 NW 7 10.00 Overcast FEW009 BKN013 OVC100 55.4 55.4 100% 29.98 0.0
02 23:10 NW 5 10.00 Overcast SCT009 BKN013 OVC095 55.4 55.4 100% 29.97 0.0
02 22:55 NW 3 10.00 Overcast SCT010 BKN013 OVC095 57.2 55.4 94% 29.97 0.0
02 22:35 NW 5 10.00 Overcast BKN010 OVC095 57.2 55.4 94% 29.96 0.0
02 22:15 Calm 10.00 Overcast BKN011 OVC095 57.2 55.4 94% 29.95 0.0
02 21:55 N 8 10.00 Overcast OVC090 57.2 53.6 88% 29.94 0.0
02 21:35 N 7 G 14 10.00 Overcast SCT070 OVC090 55.4 53.6 94% 29.92 0.0
02 21:15 N 10 10.00 Overcast SCT013 BKN065 OVC075 57.2 53.6 88% 29.93 0.0
02 20:55 N 9 10.00 Overcast SCT013 SCT055 OVC065 57.2 53.6 88% 29.93 0.0 0.01
02 20:30 N 7 G 13 10.00 Overcast SCT012 BKN060 OVC075 57.2 55.4 94% 29.91 0.0
02 20:15 N 9 9.00 Overcast FEW013 OVC055 57.2 55.4 94% 29.9 0.0
02 19:55 N 9 10.00 Overcast FEW013 OVC050 57.2 55.4 94% 29.9 0.0
Date Time (edt) Wind (mph) Vis. (mi.) Weather Sky Cond. Air Dwpt Max. Min. Relative Humidity Wind Chill (°F) Heat Index (°F) altimeter (in) sea level (mb) 1 hr 3 hr 6 hr
6 hour
Temperature (ºF) Pressure Precipitation (in)